createdAt,value
2022-11-25T00:08:14.644Z,6.52
2022-11-25T00:18:16.067Z,6.45
2022-11-25T00:28:18.598Z,6.48
2022-11-25T00:38:20.070Z,6.46
2022-11-25T00:48:21.503Z,6.22
2022-11-25T00:58:22.930Z,6.26
2022-11-25T01:08:24.392Z,6.19
2022-11-25T01:18:25.996Z,5.98
2022-11-25T01:28:28.472Z,5.94
2022-11-25T01:38:30.088Z,5.82
2022-11-25T01:48:55.105Z,5.85
2022-11-25T01:58:56.865Z,5.79
2022-11-25T02:09:08.859Z,5.92
2022-11-25T02:19:20.735Z,5.98
2022-11-25T02:29:22.657Z,6.13
2022-11-25T02:39:25.617Z,6.04
2022-11-25T02:49:27.131Z,5.70
2022-11-25T02:59:28.626Z,5.52
2022-11-25T03:09:30.237Z,5.83
2022-11-25T03:19:31.865Z,6.04
2022-11-25T03:29:33.425Z,6.18
2022-11-25T03:39:35.653Z,6.26
2022-11-25T03:49:37.593Z,6.01
2022-11-25T03:59:39.428Z,6.08
2022-11-25T04:09:41.557Z,6.28
2022-11-25T04:19:43.363Z,6.35
2022-11-25T04:29:45.223Z,6.34
2022-11-25T04:39:49.367Z,6.36
2022-11-25T04:49:52.148Z,6.30
2022-11-25T04:59:54.824Z,6.14
2022-11-25T05:09:56.730Z,6.00
2022-11-25T05:20:10.292Z,5.83
2022-11-25T05:30:13.133Z,5.70
2022-11-25T05:40:16.050Z,5.71
2022-11-25T05:50:38.719Z,5.90
2022-11-25T06:00:55.969Z,5.78
2022-11-25T06:10:58.163Z,5.78
2022-11-25T06:21:00.004Z,5.94
2022-11-25T06:31:14.440Z,5.97
2022-11-25T06:41:26.432Z,5.95
2022-11-25T06:51:27.893Z,5.97
2022-11-25T07:01:30.558Z,6.20
2022-11-25T07:11:37.691Z,6.63
2022-11-25T07:21:39.961Z,6.54
2022-11-25T07:31:43.624Z,6.34
2022-11-25T07:41:46.042Z,6.18
2022-11-25T07:51:48.863Z,6.56
2022-11-25T08:01:54.784Z,7.00
2022-11-25T08:11:56.422Z,7.21
2022-11-25T08:21:58.018Z,7.37
2022-11-25T08:31:59.551Z,7.46
2022-11-25T08:42:04.458Z,7.82
2022-11-25T08:52:05.986Z,8.01
2022-11-25T09:02:17.813Z,8.54
2022-11-25T09:12:19.401Z,9.00
2022-11-25T09:22:20.847Z,9.54
2022-11-25T09:32:22.337Z,10.40
2022-11-25T09:42:57.865Z,11.43
2022-11-25T09:53:15.613Z,11.41
2022-11-25T10:03:29.325Z,13.01
2022-11-25T10:13:46.581Z,13.21
2022-11-25T10:23:48.051Z,13.12
2022-11-25T10:33:57.278Z,13.04
2022-11-25T10:43:58.788Z,13.06
2022-11-25T10:54:09.650Z,13.35
2022-11-25T11:04:15.042Z,14.46
2022-11-25T11:14:19.936Z,14.17
2022-11-25T11:24:31.887Z,12.53
2022-11-25T11:34:52.537Z,11.83
2022-11-25T11:45:12.631Z,11.81
2022-11-25T11:56:18.988Z,12.71
2022-11-25T12:06:15.602Z,13.51
2022-11-25T12:16:35.869Z,13.85
2022-11-25T12:26:52.132Z,13.90
2022-11-25T12:37:02.520Z,13.90
2022-11-25T12:47:09.980Z,13.53
2022-11-25T12:57:26.711Z,13.35
2022-11-25T13:07:44.001Z,13.01
2022-11-25T13:17:49.026Z,12.83
2022-11-25T13:27:57.559Z,12.67
2022-11-25T13:37:59.027Z,12.59
2022-11-25T13:48:15.499Z,13.02
2022-11-25T13:58:20.769Z,12.77
2022-11-25T14:08:43.579Z,12.38
2022-11-25T14:29:32.807Z,11.85
2022-11-25T14:39:54.521Z,11.93
2022-11-25T14:50:34.266Z,11.89
2022-11-25T15:00:21.303Z,11.75
2022-11-25T15:10:40.382Z,11.71
2022-11-25T15:20:47.168Z,11.51
2022-11-25T15:31:07.226Z,11.47
2022-11-25T15:41:18.995Z,11.49
2022-11-25T15:51:41.672Z,11.37
2022-11-25T16:01:43.297Z,11.22
2022-11-25T16:11:45.295Z,11.18
2022-11-25T16:22:11.444Z,11.26
2022-11-25T16:32:19.153Z,11.28
2022-11-25T16:42:21.912Z,11.25
2022-11-25T16:52:23.366Z,11.24
2022-11-25T17:02:25.212Z,10.93
2022-11-25T17:12:30.943Z,10.82
2022-11-25T17:22:38.770Z,10.72
2022-11-25T17:32:40.670Z,10.52
2022-11-25T17:42:42.845Z,10.27
2022-11-25T17:52:44.507Z,10.61
2022-11-25T18:02:46.539Z,10.17
2022-11-25T18:12:51.210Z,9.82
2022-11-25T18:22:53.429Z,9.54
2022-11-25T18:32:56.246Z,9.29
2022-11-25T18:43:00.503Z,9.19
2022-11-25T18:53:01.946Z,9.08
2022-11-25T19:03:04.162Z,8.88
2022-11-25T19:13:08.266Z,8.78
2022-11-25T19:23:22.730Z,8.88
2022-11-25T19:33:37.400Z,8.79
2022-11-25T19:43:38.831Z,8.69
2022-11-25T19:53:40.387Z,8.85
2022-11-25T20:03:47.936Z,9.03
2022-11-25T20:13:50.495Z,8.70
2022-11-25T20:23:52.938Z,8.63
2022-11-25T20:33:54.398Z,8.64
2022-11-25T20:43:56.744Z,8.90
2022-11-25T20:54:03.109Z,9.13
2022-11-25T21:04:04.713Z,9.30
2022-11-25T21:14:13.735Z,9.33
2022-11-25T21:24:30.229Z,9.33
2022-11-25T21:34:31.679Z,9.49
2022-11-25T21:44:37.967Z,9.47
2022-11-25T21:54:40.177Z,9.60
2022-11-25T22:04:41.743Z,9.71
2022-11-25T22:14:43.233Z,9.68
2022-11-25T22:24:45.607Z,9.69
2022-11-25T22:34:47.064Z,9.72
2022-11-25T22:44:49.524Z,9.70
2022-11-25T22:54:51.585Z,9.69
2022-11-25T23:04:55.339Z,9.69
2022-11-25T23:14:56.760Z,9.87
2022-11-25T23:24:58.174Z,9.89
2022-11-25T23:34:59.669Z,9.99
2022-11-25T23:45:01.095Z,10.09
2022-11-25T23:55:03.685Z,10.08
